NCAR-RAP Real-Time Weather Data

Output produced by METARs form (24 April 2018  16:07 UTC)
found at http://weather.rap.ucar.edu/surface/
 
KFZY 241554Z AUTO 18010G17KT 160V230 10SM CLR 19/M04 A3023 RMK AO2 SLP235 T01891044
KFZY 241454Z AUTO 18011KT 10SM CLR 17/M03 A3025 RMK AO2 SLP245 T01721033 58009
KFZY 241354Z AUTO 17016G21KT 10SM CLR 16/M02 A3027 RMK AO2 SLP251 T01611017
KFZY 241254Z AUTO 18011KT 10SM CLR 15/01 A3028 RMK AO2 SLP255 T01500011
KFZY 241154Z AUTO 14005KT 10SM CLR 12/02 A3028 RMK AO2 SLP254 T01220017 10139 20100 53009
KFZY 241054Z AUTO 13004KT 10SM CLR 11/01 A3027 RMK AO2 SLP250 T01110006
KFZY 240954Z AUTO 13005KT 10SM CLR 11/01 A3026 RMK AO2 SLP246 T01110006
KFZY 240854Z AUTO 15004KT 10SM CLR 11/01 A3025 RMK AO2 SLP244 T01110006 55000
KFZY 240754Z AUTO 17009KT 10SM CLR 12/01 A3026 RMK AO2 SLP245 T01220011
KFZY 240654Z AUTO 17010KT 10SM CLR 13/01 A3025 RMK AO2 SLP242 T01330006
KFZY 240554Z AUTO 17006KT 10SM CLR 12/00 A3025 RMK AO2 SLP244 T01220000 10172 20111 56002
KFZY 240454Z AUTO VRB03KT 10SM CLR 13/M02 A3025 RMK AO2 SLP244 T01331022 402171028
KFZY 240354Z AUTO 17009KT 10SM CLR 14/M02 A3025 RMK AO2 SLP246 T01391017
KFZY 240254Z AUTO 15004KT 10SM CLR 12/M04 A3026 RMK AO2 SLP247 T01171039 50003
KFZY 240154Z AUTO 00000KT 10SM CLR 12/M04 A3026 RMK AO2 SLP248 T01171039
KFZY 240054Z AUTO 00000KT 10SM CLR 12/M03 A3025 RMK AO2 SLP246 T01221028
KFZY 232354Z AUTO 00000KT 10SM CLR 17/M06 A3025 RMK AO2 SLP244 T01721056 10217 20172 56016
KFZY 232254Z AUTO 00000KT 10SM CLR 21/M07 A3026 RMK AO2 SLP248 T02061067
KFZY 232154Z AUTO 15005KT 10SM CLR 21/M07 A3028 RMK AO2 SLP253 T02061067
KFZY 232054Z AUTO 20003KT 10SM CLR 21/M07 A3029 RMK AO2 SLP260 T02111067 58023
KFZY 231954Z AUTO VRB06KT 10SM CLR 21/M06 A3032 RMK AO2 SLP268 T02061061
KFZY 231854Z AUTO VRB04KT 10SM CLR 19/M06 A3034 RMK AO2 SLP277 T01941061
KFZY 231754Z AUTO 22007KT 10SM CLR 18/M08 A3036 RMK AO2 SLP284 T01831078 10189 20044 58027
KFZY 231654Z AUTO 13006KT 10SM CLR 17/M05 A3039 RMK AO2 SLP295 T01721050
KFZY 231554Z AUTO VRB05KT 10SM CLR 16/M08 A3042 RMK AO2 SLP304 T01561078
KFZY 231454Z AUTO 17007KT 10SM CLR 14/M06 A3044 RMK AO2 SLP312 T01391056 58007
KFZY 231354Z AUTO 15004KT 10SM CLR 12/M04 A3046 RMK AO2 SLP316 T01171044
KFZY 231254Z AUTO 12003KT 10SM CLR 08/M04 A3046 RMK AO2 SLP318 T00781039
KFZY 231154Z AUTO VRB04KT 10SM CLR 04/M04 A3046 RMK AO2 SLP319 T00441039 10044 21028 53010
KFZY 231054Z AUTO 00000KT 10SM CLR 02/M04 A3045 RMK AO2 SLP314 T00171039
KFZY 230954Z AUTO 12004KT 10SM CLR M01/M04 A3043 RMK AO2 SLP309 T10111044
KFZY 230854Z AUTO 13003KT 10SM CLR M01/M04 A3043 RMK AO2 SLP309 T10111044 53004
KFZY 230754Z AUTO 12003KT 10SM CLR M01/M04 A3043 RMK AO2 SLP306 T10111044
KFZY 230654Z AUTO 00000KT 10SM CLR 00/M04 A3042 RMK AO2 SLP305 T00001044
KFZY 230554Z AUTO 00000KT 10SM CLR M01/M04 A3042 RMK AO2 SLP305 T10061039 10106 21011 53003
KFZY 230454Z AUTO 00000KT 10SM CLR 01/M04 A3042 RMK AO2 SLP304 T00111044 401441022
KFZY 230354Z AUTO 00000KT 10SM CLR 02/M04 A3041 RMK AO2 SLP301 T00171044
KFZY 230254Z AUTO 00000KT 8SM CLR 02/M04 A3041 RMK AO2 SLP302 T00221039 50007
KFZY 230154Z AUTO 00000KT 10SM CLR 06/M08 A3041 RMK AO2 SLP302 T00561078
KFZY 230054Z AUTO 00000KT 10SM CLR 08/M06 A3041 RMK AO2 SLP301 T00781056
KFZY 222354Z AUTO 31004KT 10SM CLR 10/M08 A3039 RMK AO2 SLP293 T01001078 10144 20100 55000
KFZY 222254Z AUTO 30004KT 10SM CLR 13/M08 A3038 RMK AO2 SLP291 T01281078
KFZY 222154Z AUTO 31004KT 10SM CLR 14/M09 A3039 RMK AO2 SLP293 T01391089
KFZY 222054Z AUTO 29007KT 10SM CLR 13/M09 A3039 RMK AO2 SLP293 T01331089 56011
KFZY 221954Z AUTO 34006KT 10SM CLR 14/M09 A3040 RMK AO2 SLP296 T01391089
KFZY 221854Z AUTO 31010G15KT 10SM CLR 13/M07 A3041 RMK AO2 SLP301 T01331067
KFZY 221754Z AUTO 29009KT 10SM CLR 13/M05 A3042 RMK AO2 SLP305 T01331050 10144 20039 58007
KFZY 221654Z AUTO 29009KT 10SM CLR 13/M05 A3044 RMK AO2 SLP309 T01281050
KFZY 221554Z AUTO 29008KT 10SM CLR 13/M03 A3045 RMK AO2 SLP313 T01281033
KFZY 221454Z AUTO 24005KT 10SM CLR 11/M04 A3045 RMK AO2 SLP312 T01111039 51006
KFZY 221354Z AUTO 25004KT 10SM CLR 09/M02 A3044 RMK AO2 SLP312 T00891022
KFZY 221254Z AUTO 27003KT 10SM CLR 06/M03 A3043 RMK AO2 SLP309 T00561028
KFZY 221154Z AUTO 00000KT 10SM CLR 04/M03 A3043 RMK AO2 SLP307 T00391028 10039 21022 53015
KFZY 221054Z AUTO 00000KT 10SM CLR M02/M03 A3041 RMK AO2 SLP301 T10171033
KFZY 220954Z AUTO 00000KT 10SM CLR M01/M03 A3039 RMK AO2 SLP293 T10061033
KFZY 220854Z AUTO 00000KT 10SM CLR 02/M03 A3038 RMK AO2 SLP292 T00171028 58002
KFZY 220754Z AUTO 28003KT 10SM CLR 02/M03 A3039 RMK AO2 SLP293 T00221028
KFZY 220654Z AUTO 30003KT 10SM CLR 02/M03 A3039 RMK AO2 SLP293 T00171028
KFZY 220554Z AUTO 25003KT 10SM CLR 01/M04 A3039 RMK AO2 SLP294 T00061039 10072 21006 53004
KFZY 220454Z AUTO 00000KT 10SM CLR 01/M04 A3038 RMK AO2 SLP293 T00111044 401111011
KFZY 220354Z AUTO 26004KT 10SM CLR 04/M06 A3037 RMK AO2 SLP289 T00391056
KFZY 220254Z AUTO 00000KT 10SM CLR 04/M06 A3038 RMK AO2 SLP290 T00441056 53003
KFZY 220154Z AUTO 00000KT 10SM CLR 04/M06 A3037 RMK AO2 SLP289 T00391061
KFZY 220054Z AUTO 00000KT 10SM CLR 06/M05 A3036 RMK AO2 SLP286 T00561050
KFZY 212354Z AUTO 28005KT 10SM CLR 07/M06 A3037 RMK AO2 SLP286 T00721061 10111 20072 53002
KFZY 212254Z AUTO 30007KT 10SM CLR 09/M06 A3036 RMK AO2 SLP285 T00941061
KFZY 212154Z AUTO 28008KT 10SM CLR 11/M07 A3036 RMK AO2 SLP285 T01061067
KFZY 212054Z AUTO 28011KT 10SM CLR 11/M07 A3036 RMK AO2 SLP284 T01061072 58015
KFZY 211954Z AUTO 30012KT 10SM CLR 11/M06 A3038 RMK AO2 SLP291 T01061061
KFZY 211854Z AUTO 28013G18KT 10SM CLR 11/M06 A3039 RMK AO2 SLP294 T01061056
KFZY 211754Z AUTO 30013KT 10SM CLR 10/M04 A3040 RMK AO2 SLP299 T01001044 10100 20028 56015
KFZY 211654Z AUTO 31008KT 10SM CLR 10/M02 A3041 RMK AO2 SLP302 T01001022
KFZY 211554Z AUTO 32007KT 10SM CLR 09/M02 A3044 RMK AO2 SLP310 T00891022
KFZY 211454Z AUTO 28007KT 10SM CLR 08/M02 A3045 RMK AO2 SLP314 T00831017 50009
KFZY 211354Z AUTO 31008KT 10SM CLR 07/M02 A3045 RMK AO2 SLP315 T00671017
KFZY 211254Z AUTO 28007KT 10SM CLR 06/M01 A3044 RMK AO2 SLP313 T00561006
KFZY 211154Z AUTO 24005KT 10SM CLR 03/00 A3042 RMK AO2 SLP306 T00280000 10028 21011 53005
KFZY 211054Z AUTO 25003KT 10SM CLR 00/M02 A3041 RMK AO2 SLP303 T00001017
KFZY 210954Z AUTO 26004KT 10SM CLR 00/M02 A3040 RMK AO2 SLP300 T00001022
KFZY 210854Z AUTO 27004KT 10SM CLR M01/M02 A3041 RMK AO2 SLP301 T10061022 53008
KFZY 210754Z AUTO 25004KT 10SM CLR 00/M02 A3039 RMK AO2 SLP296 T00001022
KFZY 210654Z AUTO 27005KT 10SM CLR 01/M02 A3039 RMK AO2 SLP296 T00111022
KFZY 210554Z AUTO 26006KT 10SM CLR 01/M02 A3038 RMK AO2 SLP293 T00111022 10033 20006 53001
KFZY 210454Z AUTO 27009KT 10SM CLR 02/M02 A3038 RMK AO2 SLP292 T00221017 400611006
KFZY 210354Z AUTO 28008KT 10SM CLR 02/M02 A3038 RMK AO2 SLP292 T00221022
KFZY 210254Z AUTO 27009KT 10SM CLR 03/M03 A3038 RMK AO2 SLP292 T00281028 51006
KFZY 210154Z AUTO 28010KT 10SM CLR 03/M03 A3038 RMK AO2 SLP293 T00281028
KFZY 210054Z AUTO 27009KT 10SM CLR 03/M04 A3037 RMK AO2 SLP291 T00331039
KFZY 202354Z AUTO 27008KT 10SM CLR 03/M04 A3036 RMK AO2 SLP286 T00331039 10061 20033 51006
KFZY 202254Z AUTO 27011KT 10SM CLR 05/M03 A3035 RMK AO2 SLP283 T00501033
KFZY 202154Z AUTO 28015KT 10SM CLR 06/M04 A3035 RMK AO2 SLP282 T00611039
KFZY 202054Z AUTO 28016G19KT 10SM CLR 06/M03 A3034 RMK AO2 SLP279 T00611028 53003
KFZY 201954Z AUTO 28015G23KT 10SM FEW030 06/M02 A3033 RMK AO2 SLP276 T00561022
KFZY 201854Z AUTO 29012G18KT 10SM FEW033 BKN042 04/M03 A3033 RMK AO2 SLP274 T00441028
KFZY 201754Z AUTO 30015G32KT 10SM OVC031 03/M03 A3033 RMK AO2 PK WND 32032/1753 SLP276 60000 T00331033 10033 21006 53005 $
KFZY 201654Z AUTO 29011G19KT 10SM OVC030 03/M03 A3032 RMK AO2 SLP274 T00281033 $
KFZY 201652Z AUTO 29013G19KT 10SM OVC030 03/M03 A3032 RMK AO2 $
KFZY 201609Z AUTO 32013KT 10SM OVC029 02/M04 A3032 RMK AO2 T00221039 $
KFZY 201554Z AUTO 31011KT 10SM OVC030 02/M04 A3032 RMK AO2 SLP271 T00221039 $
KFZY 201517Z AUTO 33010KT 10SM OVC032 02/M04 A3031 RMK AO2 T00171044 $
KFZY 201454Z AUTO 32010KT 10SM BKN026 OVC033 01/M04 A3030 RMK AO2 SLP267 60000 T00111044 53023 $
KFZY 201406Z AUTO 29012KT 10SM OVC027 01/M04 A3028 RMK AO2 T00061044 $
KFZY 201354Z AUTO 29008KT 10SM OVC031 00/M04 A3028 RMK AO2 SLP259 T00001039 $
KFZY 201254Z AUTO 29011KT 10SM OVC033 00/M04 A3026 RMK AO2 SNB27E36 SLP251 P0000 T00001044 $
KFZY 201238Z AUTO 30011KT 9SM OVC031 00/M04 A3025 RMK AO2 SNB27E36 P0000 T00001044 $
KFZY 201223Z AUTO 31010KT 10SM OVC029 M01/M04 A3024 RMK AO2 T10061044 $